sensor_id;sensor_type;location;lat;lon;timestamp;pressure;altitude;pressure_sealevel;temperature;humidity
29839;BME280;18669;53.356;-1.464;2023-03-22T00:00:42;98663.00;;;10.27;100.00
29839;BME280;18669;53.356;-1.464;2023-03-22T00:03:26;98660.31;;;10.29;100.00
29839;BME280;18669;53.356;-1.464;2023-03-22T00:06:12;98651.06;;;10.22;100.00
29839;BME280;18669;53.356;-1.464;2023-03-22T00:08:57;98640.16;;;10.12;100.00
29839;BME280;18669;53.356;-1.464;2023-03-22T00:11:42;98629.34;;;10.18;100.00
29839;BME280;18669;53.356;-1.464;2023-03-22T00:14:27;98628.88;;;10.10;100.00
29839;BME280;18669;53.356;-1.464;2023-03-22T00:17:12;98620.38;;;10.05;100.00
29839;BME280;18669;53.356;-1.464;2023-03-22T00:19:57;98623.09;;;10.03;100.00
29839;BME280;18669;53.356;-1.464;2023-03-22T00:22:42;98603.94;;;10.01;100.00
29839;BME280;18669;53.356;-1.464;2023-03-22T00:25:27;98593.66;;;9.96;100.00
29839;BME280;18669;53.356;-1.464;2023-03-22T00:28:12;98595.97;;;10.03;100.00
29839;BME280;18669;53.356;-1.464;2023-03-22T00:30:58;98586.38;;;10.02;100.00
29839;BME280;18669;53.356;-1.464;2023-03-22T00:33:44;98576.34;;;10.10;100.00
29839;BME280;18669;53.356;-1.464;2023-03-22T00:36:28;98570.31;;;9.90;100.00
29839;BME280;18669;53.356;-1.464;2023-03-22T00:39:14;98573.88;;;9.89;100.00
29839;BME280;18669;53.356;-1.464;2023-03-22T00:41:59;98574.56;;;9.93;100.00
29839;BME280;18669;53.356;-1.464;2023-03-22T00:44:44;98550.22;;;9.89;100.00
29839;BME280;18669;53.356;-1.464;2023-03-22T00:47:29;98543.88;;;9.93;100.00
29839;BME280;18669;53.356;-1.464;2023-03-22T00:50:14;98552.38;;;9.98;100.00
29839;BME280;18669;53.356;-1.464;2023-03-22T00:52:58;98562.06;;;9.98;100.00
29839;BME280;18669;53.356;-1.464;2023-03-22T00:55:43;98558.09;;;10.07;100.00
29839;BME280;18669;53.356;-1.464;2023-03-22T00:58:28;98548.97;;;10.14;100.00
29839;BME280;18669;53.356;-1.464;2023-03-22T01:01:13;98544.50;;;10.16;100.00
29839;BME280;18669;53.356;-1.464;2023-03-22T01:03:58;98542.22;;;10.26;100.00
29839;BME280;18669;53.356;-1.464;2023-03-22T01:06:43;98529.59;;;10.33;100.00
29839;BME280;18669;53.356;-1.464;2023-03-22T01:09:29;98524.94;;;10.38;100.00
29839;BME280;18669;53.356;-1.464;2023-03-22T01:12:17;98505.06;;;10.50;100.00
29839;BME280;18669;53.356;-1.464;2023-03-22T01:15:04;98504.81;;;10.54;100.00
29839;BME280;18669;53.356;-1.464;2023-03-22T01:17:50;98492.78;;;10.50;100.00
29839;BME280;18669;53.356;-1.464;2023-03-22T01:20:35;98487.41;;;10.52;100.00
29839;BME280;18669;53.356;-1.464;2023-03-22T01:23:20;98475.91;;;10.54;100.00
29839;BME280;18669;53.356;-1.464;2023-03-22T01:26:05;98460.63;;;10.61;100.00
29839;BME280;18669;53.356;-1.464;2023-03-22T01:28:49;98469.94;;;10.67;100.00
29839;BME280;18669;53.356;-1.464;2023-03-22T01:31:34;98466.38;;;10.68;100.00
29839;BME280;18669;53.356;-1.464;2023-03-22T01:34:19;98434.66;;;10.71;100.00
29839;BME280;18669;53.356;-1.464;2023-03-22T01:37:04;98429.16;;;10.76;100.00
29839;BME280;18669;53.356;-1.464;2023-03-22T01:39:49;98416.72;;;10.78;100.00
29839;BME280;18669;53.356;-1.464;2023-03-22T01:42:34;98425.19;;;10.83;100.00
29839;BME280;18669;53.356;-1.464;2023-03-22T01:48:29;98425.00;;;11.02;100.00
29839;BME280;18669;53.356;-1.464;2023-03-22T01:51:20;98409.75;;;10.93;100.00
29839;BME280;18669;53.356;-1.464;2023-03-22T01:54:13;98432.13;;;11.00;100.00
29839;BME280;18669;53.356;-1.464;2023-03-22T01:57:01;98396.41;;;10.96;100.00
29839;BME280;18669;53.356;-1.464;2023-03-22T01:59:46;98403.28;;;10.98;100.00
29839;BME280;18669;53.356;-1.464;2023-03-22T02:02:33;98405.06;;;10.98;100.00
29839;BME280;18669;53.356;-1.464;2023-03-22T02:05:19;98397.25;;;10.96;100.00
29839;BME280;18669;53.356;-1.464;2023-03-22T02:08:05;98385.81;;;10.97;100.00
29839;BME280;18669;53.356;-1.464;2023-03-22T02:10:52;98392.84;;;10.97;100.00
29839;BME280;18669;53.356;-1.464;2023-03-22T02:13:44;98392.63;;;10.85;100.00
29839;BME280;18669;53.356;-1.464;2023-03-22T02:16:52;98396.78;;;10.89;100.00
29839;BME280;18669;53.356;-1.464;2023-03-22T02:26:27;98370.91;;;10.51;100.00
29839;BME280;18669;53.356;-1.464;2023-03-22T02:32:46;98374.16;;;10.71;100.00
29839;BME280;18669;53.356;-1.464;2023-03-22T02:35:45;98359.16;;;10.73;100.00
29839;BME280;18669;53.356;-1.464;2023-03-22T02:45:14;98357.44;;;10.72;100.00
29839;BME280;18669;53.356;-1.464;2023-03-22T02:48:17;98358.63;;;10.82;100.00
29839;BME280;18669;53.356;-1.464;2023-03-22T02:51:16;98349.22;;;10.78;100.00
29839;BME280;18669;53.356;-1.464;2023-03-22T02:54:06;98364.50;;;10.71;100.00
29839;BME280;18669;53.356;-1.464;2023-03-22T02:57:07;98356.91;;;10.81;100.00
29839;BME280;18669;53.356;-1.464;2023-03-22T02:59:54;98366.97;;;10.74;100.00
29839;BME280;18669;53.356;-1.464;2023-03-22T03:02:46;98346.56;;;10.78;100.00
29839;BME280;18669;53.356;-1.464;2023-03-22T03:05:32;98352.00;;;10.75;100.00
29839;BME280;18669;53.356;-1.464;2023-03-22T03:08:18;98349.22;;;10.78;100.00
29839;BME280;18669;53.356;-1.464;2023-03-22T03:11:04;98338.78;;;10.77;100.00
29839;BME280;18669;53.356;-1.464;2023-03-22T03:13:49;98336.06;;;10.78;100.00
29839;BME280;18669;53.356;-1.464;2023-03-22T03:16:34;98319.13;;;10.68;100.00
29839;BME280;18669;53.356;-1.464;2023-03-22T03:19:30;98323.66;;;10.80;100.00
29839;BME280;18669;53.356;-1.464;2023-03-22T03:25:30;98309.28;;;10.71;100.00
29839;BME280;18669;53.356;-1.464;2023-03-22T03:28:46;98288.53;;;10.81;100.00
29839;BME280;18669;53.356;-1.464;2023-03-22T03:31:44;98266.75;;;10.79;100.00
29839;BME280;18669;53.356;-1.464;2023-03-22T03:34:43;98269.94;;;10.84;100.00
29839;BME280;18669;53.356;-1.464;2023-03-22T03:37:33;98247.38;;;10.80;100.00
29839;BME280;18669;53.356;-1.464;2023-03-22T03:40:26;98244.94;;;10.77;100.00
29839;BME280;18669;53.356;-1.464;2023-03-22T03:43:12;98224.44;;;10.68;100.00
29839;BME280;18669;53.356;-1.464;2023-03-22T03:45:59;98203.22;;;10.71;100.00
29839;BME280;18669;53.356;-1.464;2023-03-22T03:48:46;98256.22;;;10.79;100.00
29839;BME280;18669;53.356;-1.464;2023-03-22T03:51:32;98281.34;;;10.69;100.00
29839;BME280;18669;53.356;-1.464;2023-03-22T03:54:17;98271.59;;;10.71;100.00
29839;BME280;18669;53.356;-1.464;2023-03-22T03:57:02;98294.34;;;10.72;100.00
29839;BME280;18669;53.356;-1.464;2023-03-22T03:59:47;98289.66;;;10.77;100.00
29839;BME280;18669;53.356;-1.464;2023-03-22T04:02:31;98270.88;;;10.83;100.00
29839;BME280;18669;53.356;-1.464;2023-03-22T04:05:16;98268.81;;;10.88;100.00
29839;BME280;18669;53.356;-1.464;2023-03-22T04:08:01;98274.75;;;10.92;100.00
29839;BME280;18669;53.356;-1.464;2023-03-22T04:10:50;98261.50;;;11.08;100.00
29839;BME280;18669;53.356;-1.464;2023-03-22T04:13:35;98262.44;;;11.07;100.00
29839;BME280;18669;53.356;-1.464;2023-03-22T04:16:20;98260.94;;;11.03;100.00
29839;BME280;18669;53.356;-1.464;2023-03-22T04:19:04;98269.03;;;11.14;100.00
29839;BME280;18669;53.356;-1.464;2023-03-22T04:21:49;98278.69;;;11.14;100.00
29839;BME280;18669;53.356;-1.464;2023-03-22T04:24:36;98277.38;;;11.21;100.00
29839;BME280;18669;53.356;-1.464;2023-03-22T04:27:21;98295.03;;;11.19;100.00
29839;BME280;18669;53.356;-1.464;2023-03-22T04:30:08;98275.03;;;11.31;100.00
29839;BME280;18669;53.356;-1.464;2023-03-22T04:32:56;98275.88;;;11.17;100.00
29839;BME280;18669;53.356;-1.464;2023-03-22T04:35:40;98284.81;;;11.14;100.00
29839;BME280;18669;53.356;-1.464;2023-03-22T04:38:25;98298.91;;;11.13;100.00
29839;BME280;18669;53.356;-1.464;2023-03-22T04:41:10;98293.06;;;11.08;100.00
29839;BME280;18669;53.356;-1.464;2023-03-22T04:43:55;98296.16;;;11.15;100.00
29839;BME280;18669;53.356;-1.464;2023-03-22T04:46:40;98291.59;;;11.18;100.00
29839;BME280;18669;53.356;-1.464;2023-03-22T04:49:27;98313.84;;;11.27;100.00
29839;BME280;18669;53.356;-1.464;2023-03-22T04:52:12;98313.84;;;11.27;100.00
29839;BME280;18669;53.356;-1.464;2023-03-22T04:54:57;98327.97;;;11.26;100.00
29839;BME280;18669;53.356;-1.464;2023-03-22T04:57:42;98304.44;;;11.23;100.00
29839;BME280;18669;53.356;-1.464;2023-03-22T05:00:26;98316.69;;;11.24;100.00
29839;BME280;18669;53.356;-1.464;2023-03-22T05:03:13;98322.41;;;11.16;100.00
29839;BME280;18669;53.356;-1.464;2023-03-22T05:06:04;98329.19;;;11.21;100.00
29839;BME280;18669;53.356;-1.464;2023-03-22T05:08:49;98320.91;;;11.12;100.00
29839;BME280;18669;53.356;-1.464;2023-03-22T05:11:34;98316.28;;;11.16;100.00
29839;BME280;18669;53.356;-1.464;2023-03-22T05:14:19;98307.75;;;11.12;100.00
29839;BME280;18669;53.356;-1.464;2023-03-22T05:17:04;98317.97;;;11.17;100.00
29839;BME280;18669;53.356;-1.464;2023-03-22T05:19:49;98338.38;;;11.13;100.00
29839;BME280;18669;53.356;-1.464;2023-03-22T05:22:35;98340.16;;;11.13;100.00
29839;BME280;18669;53.356;-1.464;2023-03-22T05:25:23;98324.81;;;11.05;100.00
29839;BME280;18669;53.356;-1.464;2023-03-22T05:28:08;98322.94;;;11.07;100.00
29839;BME280;18669;53.356;-1.464;2023-03-22T05:30:53;98336.88;;;11.09;100.00
29839;BME280;18669;53.356;-1.464;2023-03-22T05:33:38;98343.25;;;11.05;100.00
29839;BME280;18669;53.356;-1.464;2023-03-22T05:36:22;98345.81;;;11.07;100.00
29839;BME280;18669;53.356;-1.464;2023-03-22T05:39:07;98346.91;;;11.02;100.00
29839;BME280;18669;53.356;-1.464;2023-03-22T05:41:52;98331.31;;;10.99;100.00
29839;BME280;18669;53.356;-1.464;2023-03-22T05:44:37;98330.63;;;10.96;100.00
29839;BME280;18669;53.356;-1.464;2023-03-22T05:47:22;98345.69;;;10.94;100.00
29839;BME280;18669;53.356;-1.464;2023-03-22T05:50:12;98356.16;;;11.10;100.00
29839;BME280;18669;53.356;-1.464;2023-03-22T05:52:57;98346.34;;;10.97;100.00
29839;BME280;18669;53.356;-1.464;2023-03-22T05:55:42;98365.13;;;10.91;100.00
29839;BME280;18669;53.356;-1.464;2023-03-22T05:58:30;98352.44;;;10.98;100.00
29839;BME280;18669;53.356;-1.464;2023-03-22T06:01:15;98365.88;;;10.93;100.00
29839;BME280;18669;53.356;-1.464;2023-03-22T06:04:00;98358.16;;;10.90;100.00
29839;BME280;18669;53.356;-1.464;2023-03-22T06:06:45;98362.00;;;10.84;100.00
29839;BME280;18669;53.356;-1.464;2023-03-22T06:09:29;98372.59;;;10.83;100.00
29839;BME280;18669;53.356;-1.464;2023-03-22T06:12:15;98378.78;;;10.82;100.00
29839;BME280;18669;53.356;-1.464;2023-03-22T06:15:00;98383.41;;;10.78;100.00
29839;BME280;18669;53.356;-1.464;2023-03-22T06:17:45;98387.25;;;10.72;100.00
29839;BME280;18669;53.356;-1.464;2023-03-22T06:20:30;98393.59;;;10.68;100.00
29839;BME280;18669;53.356;-1.464;2023-03-22T06:23:14;98394.88;;;10.61;100.00
29839;BME280;18669;53.356;-1.464;2023-03-22T06:25:59;98402.94;;;10.58;100.00
29839;BME280;18669;53.356;-1.464;2023-03-22T06:28:44;98409.06;;;10.58;100.00
29839;BME280;18669;53.356;-1.464;2023-03-22T06:31:29;98423.22;;;10.56;100.00
29839;BME280;18669;53.356;-1.464;2023-03-22T06:34:14;98429.56;;;10.52;100.00
29839;BME280;18669;53.356;-1.464;2023-03-22T06:36:59;98438.56;;;10.48;100.00
29839;BME280;18669;53.356;-1.464;2023-03-22T06:39:44;98443.16;;;10.44;100.00
29839;BME280;18669;53.356;-1.464;2023-03-22T06:42:29;98439.13;;;10.37;100.00
29839;BME280;18669;53.356;-1.464;2023-03-22T06:45:14;98458.56;;;10.34;100.00
29839;BME280;18669;53.356;-1.464;2023-03-22T06:48:00;98457.78;;;10.32;100.00
29839;BME280;18669;53.356;-1.464;2023-03-22T06:50:45;98462.34;;;10.28;100.00
29839;BME280;18669;53.356;-1.464;2023-03-22T06:53:30;98465.41;;;10.21;100.00
29839;BME280;18669;53.356;-1.464;2023-03-22T06:56:15;98484.88;;;10.17;100.00
29839;BME280;18669;53.356;-1.464;2023-03-22T06:58:59;98487.84;;;10.10;100.00
29839;BME280;18669;53.356;-1.464;2023-03-22T07:01:44;98490.81;;;10.04;100.00
29839;BME280;18669;53.356;-1.464;2023-03-22T07:04:29;98496.06;;;10.04;100.00
29839;BME280;18669;53.356;-1.464;2023-03-22T07:07:14;98506.84;;;9.82;100.00
29839;BME280;18669;53.356;-1.464;2023-03-22T07:09:59;98509.22;;;9.87;100.00
29839;BME280;18669;53.356;-1.464;2023-03-22T07:12:44;98523.81;;;9.92;100.00
29839;BME280;18669;53.356;-1.464;2023-03-22T07:15:29;98527.97;;;9.96;100.00
29839;BME280;18669;53.356;-1.464;2023-03-22T07:18:14;98530.69;;;9.95;100.00
29839;BME280;18669;53.356;-1.464;2023-03-22T07:20:59;98537.09;;;9.89;100.00
29839;BME280;18669;53.356;-1.464;2023-03-22T07:23:44;98538.97;;;9.87;100.00
29839;BME280;18669;53.356;-1.464;2023-03-22T07:26:28;98541.81;;;9.82;100.00
29839;BME280;18669;53.356;-1.464;2023-03-22T07:29:14;98536.41;;;9.85;100.00
29839;BME280;18669;53.356;-1.464;2023-03-22T07:31:59;98540.94;;;9.99;100.00
29839;BME280;18669;53.356;-1.464;2023-03-22T07:34:44;98548.69;;;10.03;100.00
29839;BME280;18669;53.356;-1.464;2023-03-22T07:37:29;98544.66;;;9.95;100.00
29839;BME280;18669;53.356;-1.464;2023-03-22T07:40:14;98548.69;;;10.03;100.00
29839;BME280;18669;53.356;-1.464;2023-03-22T07:42:59;98563.81;;;10.15;100.00
29839;BME280;18669;53.356;-1.464;2023-03-22T07:45:44;98562.94;;;10.14;100.00
29839;BME280;18669;53.356;-1.464;2023-03-22T07:48:29;98561.63;;;10.23;100.00
29839;BME280;18669;53.356;-1.464;2023-03-22T07:51:15;98555.81;;;10.34;100.00
29839;BME280;18669;53.356;-1.464;2023-03-22T07:54:03;98566.28;;;10.52;100.00
29839;BME280;18669;53.356;-1.464;2023-03-22T07:56:48;98569.53;;;10.57;100.00
29839;BME280;18669;53.356;-1.464;2023-03-22T07:59:33;98564.09;;;10.60;100.00
29839;BME280;18669;53.356;-1.464;2023-03-22T08:02:17;98569.69;;;10.70;100.00
29839;BME280;18669;53.356;-1.464;2023-03-22T08:05:03;98570.81;;;10.82;100.00
29839;BME280;18669;53.356;-1.464;2023-03-22T08:07:48;98571.19;;;10.92;100.00
29839;BME280;18669;53.356;-1.464;2023-03-22T08:10:34;98565.97;;;11.22;100.00
29839;BME280;18669;53.356;-1.464;2023-03-22T08:13:19;98566.41;;;11.61;100.00
29839;BME280;18669;53.356;-1.464;2023-03-22T08:16:05;98566.13;;;11.96;99.50
29839;BME280;18669;53.356;-1.464;2023-03-22T08:18:49;98571.84;;;12.33;92.03
29839;BME280;18669;53.356;-1.464;2023-03-22T08:21:34;98561.81;;;12.82;89.24
29839;BME280;18669;53.356;-1.464;2023-03-22T08:24:19;98561.88;;;13.22;83.97
29839;BME280;18669;53.356;-1.464;2023-03-22T08:27:05;98584.22;;;14.12;79.99
29839;BME280;18669;53.356;-1.464;2023-03-22T08:29:49;98572.66;;;14.39;73.67
29839;BME280;18669;53.356;-1.464;2023-03-22T08:32:34;98577.75;;;15.05;68.70
29839;BME280;18669;53.356;-1.464;2023-03-22T08:35:20;98577.75;;;14.81;69.33
29839;BME280;18669;53.356;-1.464;2023-03-22T08:38:05;98581.88;;;14.59;61.62
29839;BME280;18669;53.356;-1.464;2023-03-22T08:40:50;98593.50;;;15.19;60.57
29839;BME280;18669;53.356;-1.464;2023-03-22T08:43:35;98576.75;;;15.19;59.84
29839;BME280;18669;53.356;-1.464;2023-03-22T08:46:19;98568.81;;;15.19;59.31
29839;BME280;18669;53.356;-1.464;2023-03-22T08:49:04;98576.97;;;15.29;58.30
29839;BME280;18669;53.356;-1.464;2023-03-22T08:51:49;98572.88;;;15.60;56.87
29839;BME280;18669;53.356;-1.464;2023-03-22T08:54:34;98569.84;;;15.54;54.93
29839;BME280;18669;53.356;-1.464;2023-03-22T08:57:19;98575.31;;;16.10;54.33
29839;BME280;18669;53.356;-1.464;2023-03-22T09:00:06;98574.16;;;16.49;50.56
29839;BME280;18669;53.356;-1.464;2023-03-22T09:02:51;98587.84;;;16.08;48.33
29839;BME280;18669;53.356;-1.464;2023-03-22T09:05:35;98579.31;;;16.28;48.27
29839;BME280;18669;53.356;-1.464;2023-03-22T09:08:20;98577.66;;;16.83;48.98
29839;BME280;18669;53.356;-1.464;2023-03-22T09:11:10;98589.47;;;17.57;46.88
29839;BME280;18669;53.356;-1.464;2023-03-22T09:13:55;98587.66;;;17.14;45.54
29839;BME280;18669;53.356;-1.464;2023-03-22T09:16:40;98583.44;;;17.00;46.30
29839;BME280;18669;53.356;-1.464;2023-03-22T09:19:25;98606.41;;;17.01;47.26
29839;BME280;18669;53.356;-1.464;2023-03-22T09:22:09;98599.16;;;16.80;47.62
29839;BME280;18669;53.356;-1.464;2023-03-22T09:24:54;98600.50;;;17.09;46.10
29839;BME280;18669;53.356;-1.464;2023-03-22T09:27:39;98612.09;;;16.96;46.68
29839;BME280;18669;53.356;-1.464;2023-03-22T09:30:24;98593.22;;;16.54;47.03
29839;BME280;18669;53.356;-1.464;2023-03-22T09:33:09;98600.25;;;16.66;45.47
29839;BME280;18669;53.356;-1.464;2023-03-22T09:35:55;98606.50;;;16.54;46.42
29839;BME280;18669;53.356;-1.464;2023-03-22T09:38:40;98594.88;;;17.23;47.55
29839;BME280;18669;53.356;-1.464;2023-03-22T09:41:40;98611.50;;;18.66;43.12
29839;BME280;18669;53.356;-1.464;2023-03-22T09:44:29;98611.16;;;18.59;40.99
29839;BME280;18669;53.356;-1.464;2023-03-22T09:47:34;98599.97;;;18.13;40.97
29839;BME280;18669;53.356;-1.464;2023-03-22T09:50:23;98597.00;;;18.27;40.81
29839;BME280;18669;53.356;-1.464;2023-03-22T09:53:12;98590.28;;;18.95;40.39
29839;BME280;18669;53.356;-1.464;2023-03-22T09:56:23;98605.56;;;19.44;38.64
29839;BME280;18669;53.356;-1.464;2023-03-22T09:59:22;98588.31;;;19.87;37.72
29839;BME280;18669;53.356;-1.464;2023-03-22T10:05:44;98604.47;;;19.56;35.33
29839;BME280;18669;53.356;-1.464;2023-03-22T10:12:04;98603.91;;;20.11;36.26
29839;BME280;18669;53.356;-1.464;2023-03-22T10:15:07;98602.72;;;21.09;34.08
29839;BME280;18669;53.356;-1.464;2023-03-22T10:17:55;98593.78;;;19.66;35.36
29839;BME280;18669;53.356;-1.464;2023-03-22T10:20:47;98604.59;;;20.13;36.67
29839;BME280;18669;53.356;-1.464;2023-03-22T10:23:41;98602.84;;;20.42;35.64
29839;BME280;18669;53.356;-1.464;2023-03-22T10:26:33;98604.63;;;20.99;35.00
29839;BME280;18669;53.356;-1.464;2023-03-22T10:32:17;98619.03;;;20.40;36.22
29839;BME280;18669;53.356;-1.464;2023-03-22T10:35:02;98624.34;;;19.32;36.81
29839;BME280;18669;53.356;-1.464;2023-03-22T10:37:48;98646.72;;;18.48;37.61
29839;BME280;18669;53.356;-1.464;2023-03-22T10:40:35;98630.06;;;17.59;39.27
29839;BME280;18669;53.356;-1.464;2023-03-22T10:43:38;98624.41;;;16.97;41.54
29839;BME280;18669;53.356;-1.464;2023-03-22T10:46:27;98643.00;;;17.09;42.14
29839;BME280;18669;53.356;-1.464;2023-03-22T10:49:28;98629.19;;;17.26;41.25
29839;BME280;18669;53.356;-1.464;2023-03-22T10:52:39;98622.19;;;17.14;41.18
29839;BME280;18669;53.356;-1.464;2023-03-22T10:55:24;98630.91;;;16.70;42.22
29839;BME280;18669;53.356;-1.464;2023-03-22T10:58:15;98639.66;;;16.37;42.14
29839;BME280;18669;53.356;-1.464;2023-03-22T11:01:09;98632.91;;;16.33;44.08
29839;BME280;18669;53.356;-1.464;2023-03-22T11:04:05;98643.13;;;16.26;43.26
29839;BME280;18669;53.356;-1.464;2023-03-22T11:06:52;98629.44;;;16.66;43.63
29839;BME280;18669;53.356;-1.464;2023-03-22T11:09:37;98636.81;;;17.20;41.40
29839;BME280;18669;53.356;-1.464;2023-03-22T11:12:21;98646.97;;;17.03;41.05
29839;BME280;18669;53.356;-1.464;2023-03-22T11:18:13;98646.44;;;16.64;43.77
29839;BME280;18669;53.356;-1.464;2023-03-22T11:21:05;98642.41;;;16.24;44.27
29839;BME280;18669;53.356;-1.464;2023-03-22T11:23:57;98636.75;;;15.69;46.25
29839;BME280;18669;53.356;-1.464;2023-03-22T11:27:04;98632.63;;;15.40;46.90
29839;BME280;18669;53.356;-1.464;2023-03-22T11:29:51;98630.97;;;14.89;47.35
29839;BME280;18669;53.356;-1.464;2023-03-22T11:32:38;98633.22;;;14.69;47.62
29839;BME280;18669;53.356;-1.464;2023-03-22T11:35:23;98641.16;;;14.43;48.36
29839;BME280;18669;53.356;-1.464;2023-03-22T11:38:24;98628.88;;;14.68;49.65
29839;BME280;18669;53.356;-1.464;2023-03-22T11:44:06;98628.94;;;15.43;47.05
29839;BME280;18669;53.356;-1.464;2023-03-22T11:46:55;98632.22;;;15.95;46.38
29839;BME280;18669;53.356;-1.464;2023-03-22T11:49:49;98603.97;;;17.21;42.05
29839;BME280;18669;53.356;-1.464;2023-03-22T11:52:35;98611.53;;;17.37;40.35
29839;BME280;18669;53.356;-1.464;2023-03-22T11:55:19;98613.53;;;18.31;38.64
29839;BME280;18669;53.356;-1.464;2023-03-22T11:58:05;98618.09;;;18.19;38.38
29839;BME280;18669;53.356;-1.464;2023-03-22T12:00:52;98625.19;;;18.92;38.57
29839;BME280;18669;53.356;-1.464;2023-03-22T12:03:40;98611.84;;;18.51;40.10
29839;BME280;18669;53.356;-1.464;2023-03-22T12:06:30;98607.50;;;18.08;38.57
29839;BME280;18669;53.356;-1.464;2023-03-22T12:12:13;98616.69;;;17.50;40.01
29839;BME280;18669;53.356;-1.464;2023-03-22T12:15:25;98620.00;;;17.96;39.12
29839;BME280;18669;53.356;-1.464;2023-03-22T12:18:15;98607.59;;;17.85;39.67
29839;BME280;18669;53.356;-1.464;2023-03-22T12:21:02;98606.75;;;18.17;38.60
29839;BME280;18669;53.356;-1.464;2023-03-22T12:23:46;98597.41;;;18.85;37.56
29839;BME280;18669;53.356;-1.464;2023-03-22T12:26:32;98591.69;;;19.40;37.48
29839;BME280;18669;53.356;-1.464;2023-03-22T12:29:18;98575.94;;;19.66;36.28
29839;BME280;18669;53.356;-1.464;2023-03-22T12:32:26;98582.22;;;19.26;35.98
29839;BME280;18669;53.356;-1.464;2023-03-22T12:35:17;98581.28;;;18.24;37.95
29839;BME280;18669;53.356;-1.464;2023-03-22T12:41:37;98561.34;;;17.97;38.95
29839;BME280;18669;53.356;-1.464;2023-03-22T12:44:30;98568.47;;;17.97;38.28
29839;BME280;18669;53.356;-1.464;2023-03-22T12:47:23;98562.59;;;17.93;38.64
29839;BME280;18669;53.356;-1.464;2023-03-22T12:52:58;98521.66;;;18.06;39.17
29839;BME280;18669;53.356;-1.464;2023-03-22T12:55:44;98531.22;;;18.39;38.46
29839;BME280;18669;53.356;-1.464;2023-03-22T12:58:30;98530.47;;;18.68;38.91
29839;BME280;18669;53.356;-1.464;2023-03-22T13:18:58;98535.56;;;17.55;41.44
29839;BME280;18669;53.356;-1.464;2023-03-22T13:21:43;98536.88;;;17.28;42.13
29839;BME280;18669;53.356;-1.464;2023-03-22T13:24:29;98530.59;;;17.29;42.84
29839;BME280;18669;53.356;-1.464;2023-03-22T13:27:15;98544.34;;;16.68;42.29
29839;BME280;18669;53.356;-1.464;2023-03-22T13:30:00;98537.72;;;16.51;43.45
29839;BME280;18669;53.356;-1.464;2023-03-22T13:33:18;98525.44;;;16.27;43.46
29839;BME280;18669;53.356;-1.464;2023-03-22T13:38:56;98521.94;;;16.15;43.79
29839;BME280;18669;53.356;-1.464;2023-03-22T13:41:46;98522.63;;;16.06;44.20
29839;BME280;18669;53.356;-1.464;2023-03-22T13:44:37;98519.16;;;16.05;44.70
29839;BME280;18669;53.356;-1.464;2023-03-22T13:47:35;98533.25;;;16.29;43.93
29839;BME280;18669;53.356;-1.464;2023-03-22T13:50:30;98519.63;;;16.56;44.25
29839;BME280;18669;53.356;-1.464;2023-03-22T13:53:26;98519.03;;;16.52;43.64
29839;BME280;18669;53.356;-1.464;2023-03-22T13:56:49;98515.88;;;16.70;44.59
29839;BME280;18669;53.356;-1.464;2023-03-22T14:00:00;98508.88;;;16.69;44.96
29839;BME280;18669;53.356;-1.464;2023-03-22T14:02:45;98517.13;;;16.54;44.90
29839;BME280;18669;53.356;-1.464;2023-03-22T14:05:35;98505.53;;;16.44;45.23
29839;BME280;18669;53.356;-1.464;2023-03-22T14:08:25;98505.53;;;16.21;45.75
29839;BME280;18669;53.356;-1.464;2023-03-22T14:11:17;98501.03;;;15.88;45.77
29839;BME280;18669;53.356;-1.464;2023-03-22T14:14:12;98499.78;;;15.80;45.98
29839;BME280;18669;53.356;-1.464;2023-03-22T14:17:12;98489.97;;;16.05;45.79
29839;BME280;18669;53.356;-1.464;2023-03-22T14:20:01;98491.91;;;16.15;45.34
29839;BME280;18669;53.356;-1.464;2023-03-22T14:22:57;98484.19;;;16.34;45.73
29839;BME280;18669;53.356;-1.464;2023-03-22T14:25:44;98486.72;;;16.59;44.99
29839;BME280;18669;53.356;-1.464;2023-03-22T14:28:37;98482.03;;;16.39;45.53
29839;BME280;18669;53.356;-1.464;2023-03-22T14:31:26;98482.72;;;16.07;45.76
29839;BME280;18669;53.356;-1.464;2023-03-22T14:34:15;98482.47;;;15.88;46.89
29839;BME280;18669;53.356;-1.464;2023-03-22T14:37:03;98496.78;;;15.85;46.68
29839;BME280;18669;53.356;-1.464;2023-03-22T14:39:50;98488.31;;;15.69;46.87
29839;BME280;18669;53.356;-1.464;2023-03-22T14:42:35;98487.50;;;15.79;47.20
29839;BME280;18669;53.356;-1.464;2023-03-22T14:45:21;98474.91;;;16.06;46.92
29839;BME280;18669;53.356;-1.464;2023-03-22T14:48:20;98472.22;;;16.29;46.55
29839;BME280;18669;53.356;-1.464;2023-03-22T14:51:13;98477.41;;;16.53;46.42
29839;BME280;18669;53.356;-1.464;2023-03-22T14:54:03;98487.06;;;16.54;45.80
29839;BME280;18669;53.356;-1.464;2023-03-22T14:56:48;98474.16;;;16.26;45.77
29839;BME280;18669;53.356;-1.464;2023-03-22T14:59:33;98461.47;;;16.64;46.43
29839;BME280;18669;53.356;-1.464;2023-03-22T15:05:15;98451.13;;;17.26;44.80
29839;BME280;18669;53.356;-1.464;2023-03-22T15:08:25;98439.09;;;16.78;45.38
29839;BME280;18669;53.356;-1.464;2023-03-22T15:11:11;98461.22;;;16.56;45.49
29839;BME280;18669;53.356;-1.464;2023-03-22T15:13:56;98450.63;;;16.45;45.88
29839;BME280;18669;53.356;-1.464;2023-03-22T15:16:44;98443.06;;;16.17;45.65
29839;BME280;18669;53.356;-1.464;2023-03-22T15:19:34;98450.06;;;16.07;46.40
29839;BME280;18669;53.356;-1.464;2023-03-22T15:22:20;98453.25;;;15.76;45.73
29839;BME280;18669;53.356;-1.464;2023-03-22T15:25:10;98451.25;;;15.91;45.84
29839;BME280;18669;53.356;-1.464;2023-03-22T15:27:56;98439.91;;;15.78;46.36
29839;BME280;18669;53.356;-1.464;2023-03-22T15:30:47;98435.84;;;16.08;46.11
29839;BME280;18669;53.356;-1.464;2023-03-22T15:33:36;98436.31;;;16.02;45.56
29839;BME280;18669;53.356;-1.464;2023-03-22T15:36:21;98426.69;;;16.12;44.96
29839;BME280;18669;53.356;-1.464;2023-03-22T15:45:20;98429.44;;;16.33;43.96
29839;BME280;18669;53.356;-1.464;2023-03-22T15:48:17;98429.88;;;17.26;43.21
29839;BME280;18669;53.356;-1.464;2023-03-22T15:51:04;98424.56;;;17.48;40.87